sensor_id;sensor_type;location;lat;lon;timestamp;P1;durP1;ratioP1;P2;durP2;ratioP2
3718;SDS011;1875;52.492;6.860;2023-02-24T00:00:06;20.70;;;5.47;;
3718;SDS011;1875;52.492;6.860;2023-02-24T00:02:59;23.30;;;4.77;;
3718;SDS011;1875;52.492;6.860;2023-02-24T00:05:32;21.83;;;4.63;;
3718;SDS011;1875;52.492;6.860;2023-02-24T00:08:01;31.20;;;4.83;;
3718;SDS011;1875;52.492;6.860;2023-02-24T00:10:28;18.37;;;3.97;;
3718;SDS011;1875;52.492;6.860;2023-02-24T00:12:58;23.83;;;4.97;;
3718;SDS011;1875;52.492;6.860;2023-02-24T00:15:25;21.40;;;4.77;;
3718;SDS011;1875;52.492;6.860;2023-02-24T00:17:53;19.10;;;4.03;;
3718;SDS011;1875;52.492;6.860;2023-02-24T00:20:22;25.40;;;5.77;;
3718;SDS011;1875;52.492;6.860;2023-02-24T00:22:50;18.57;;;4.87;;
3718;SDS011;1875;52.492;6.860;2023-02-24T00:25:17;18.03;;;4.17;;
3718;SDS011;1875;52.492;6.860;2023-02-24T00:27:45;18.43;;;4.30;;
3718;SDS011;1875;52.492;6.860;2023-02-24T00:30:13;24.17;;;5.03;;
3718;SDS011;1875;52.492;6.860;2023-02-24T00:32:42;26.43;;;4.30;;
3718;SDS011;1875;52.492;6.860;2023-02-24T00:35:10;28.43;;;5.00;;
3718;SDS011;1875;52.492;6.860;2023-02-24T00:37:39;19.23;;;4.40;;
3718;SDS011;1875;52.492;6.860;2023-02-24T00:40:08;21.67;;;4.57;;
3718;SDS011;1875;52.492;6.860;2023-02-24T00:42:37;15.20;;;4.30;;
3718;SDS011;1875;52.492;6.860;2023-02-24T00:45:08;24.27;;;5.30;;
3718;SDS011;1875;52.492;6.860;2023-02-24T00:47:36;24.00;;;4.37;;
3718;SDS011;1875;52.492;6.860;2023-02-24T00:50:05;18.33;;;4.27;;
3718;SDS011;1875;52.492;6.860;2023-02-24T00:52:33;23.50;;;4.83;;
3718;SDS011;1875;52.492;6.860;2023-02-24T00:55:03;23.80;;;4.30;;
3718;SDS011;1875;52.492;6.860;2023-02-24T00:57:39;22.20;;;4.43;;
3718;SDS011;1875;52.492;6.860;2023-02-24T01:00:08;20.57;;;3.93;;
3718;SDS011;1875;52.492;6.860;2023-02-24T01:02:41;32.87;;;5.63;;
3718;SDS011;1875;52.492;6.860;2023-02-24T01:05:11;20.10;;;3.83;;
3718;SDS011;1875;52.492;6.860;2023-02-24T01:07:40;19.30;;;4.70;;
3718;SDS011;1875;52.492;6.860;2023-02-24T01:10:10;18.63;;;4.23;;
3718;SDS011;1875;52.492;6.860;2023-02-24T01:12:38;25.10;;;5.03;;
3718;SDS011;1875;52.492;6.860;2023-02-24T01:15:15;13.53;;;4.70;;
3718;SDS011;1875;52.492;6.860;2023-02-24T01:17:44;22.70;;;5.70;;
3718;SDS011;1875;52.492;6.860;2023-02-24T01:20:12;24.73;;;5.27;;
3718;SDS011;1875;52.492;6.860;2023-02-24T01:22:45;25.73;;;5.20;;
3718;SDS011;1875;52.492;6.860;2023-02-24T01:25:15;26.53;;;4.60;;
3718;SDS011;1875;52.492;6.860;2023-02-24T01:27:44;24.90;;;5.40;;
3718;SDS011;1875;52.492;6.860;2023-02-24T01:30:12;27.50;;;5.70;;
3718;SDS011;1875;52.492;6.860;2023-02-24T01:32:41;26.60;;;4.90;;
3718;SDS011;1875;52.492;6.860;2023-02-24T01:35:09;23.73;;;5.20;;
3718;SDS011;1875;52.492;6.860;2023-02-24T01:37:39;16.57;;;4.30;;
3718;SDS011;1875;52.492;6.860;2023-02-24T01:40:10;21.67;;;4.90;;
3718;SDS011;1875;52.492;6.860;2023-02-24T01:42:45;16.40;;;4.50;;
3718;SDS011;1875;52.492;6.860;2023-02-24T01:45:17;25.83;;;4.90;;
3718;SDS011;1875;52.492;6.860;2023-02-24T01:47:50;23.53;;;5.27;;
3718;SDS011;1875;52.492;6.860;2023-02-24T01:50:19;24.17;;;6.70;;
3718;SDS011;1875;52.492;6.860;2023-02-24T01:52:51;29.97;;;6.10;;
3718;SDS011;1875;52.492;6.860;2023-02-24T01:55:22;19.53;;;5.77;;
3718;SDS011;1875;52.492;6.860;2023-02-24T01:57:56;23.57;;;5.40;;
3718;SDS011;1875;52.492;6.860;2023-02-24T02:00:25;17.43;;;6.53;;
3718;SDS011;1875;52.492;6.860;2023-02-24T02:03:12;21.40;;;5.70;;
3718;SDS011;1875;52.492;6.860;2023-02-24T02:05:44;21.83;;;4.70;;
3718;SDS011;1875;52.492;6.860;2023-02-24T02:08:14;20.20;;;6.43;;
3718;SDS011;1875;52.492;6.860;2023-02-24T02:10:42;18.13;;;5.50;;
3718;SDS011;1875;52.492;6.860;2023-02-24T02:13:13;17.37;;;5.13;;
3718;SDS011;1875;52.492;6.860;2023-02-24T02:15:50;20.17;;;5.60;;
3718;SDS011;1875;52.492;6.860;2023-02-24T02:18:25;19.73;;;5.07;;
3718;SDS011;1875;52.492;6.860;2023-02-24T02:21:06;22.27;;;4.53;;
3718;SDS011;1875;52.492;6.860;2023-02-24T02:24:00;26.23;;;5.63;;
3718;SDS011;1875;52.492;6.860;2023-02-24T02:26:40;23.17;;;6.97;;
3718;SDS011;1875;52.492;6.860;2023-02-24T02:29:35;20.27;;;4.53;;
3718;SDS011;1875;52.492;6.860;2023-02-24T02:35:22;27.57;;;5.93;;
3718;SDS011;1875;52.492;6.860;2023-02-24T02:37:53;20.10;;;4.90;;
3718;SDS011;1875;52.492;6.860;2023-02-24T02:40:25;20.10;;;5.00;;
3718;SDS011;1875;52.492;6.860;2023-02-24T02:42:56;25.10;;;4.60;;
3718;SDS011;1875;52.492;6.860;2023-02-24T02:45:26;25.70;;;5.33;;
3718;SDS011;1875;52.492;6.860;2023-02-24T02:47:58;22.63;;;5.03;;
3718;SDS011;1875;52.492;6.860;2023-02-24T02:50:30;27.77;;;5.33;;
3718;SDS011;1875;52.492;6.860;2023-02-24T02:53:01;21.47;;;5.10;;
3718;SDS011;1875;52.492;6.860;2023-02-24T02:55:32;20.40;;;5.10;;
3718;SDS011;1875;52.492;6.860;2023-02-24T02:58:05;17.50;;;4.50;;
3718;SDS011;1875;52.492;6.860;2023-02-24T03:00:37;16.07;;;3.80;;
3718;SDS011;1875;52.492;6.860;2023-02-24T03:03:09;25.50;;;4.53;;
3718;SDS011;1875;52.492;6.860;2023-02-24T03:05:41;18.50;;;4.07;;
3718;SDS011;1875;52.492;6.860;2023-02-24T03:08:12;20.10;;;4.47;;
3718;SDS011;1875;52.492;6.860;2023-02-24T03:10:43;12.97;;;3.60;;
3718;SDS011;1875;52.492;6.860;2023-02-24T03:13:16;12.33;;;3.80;;
3718;SDS011;1875;52.492;6.860;2023-02-24T03:15:47;18.57;;;3.93;;
3718;SDS011;1875;52.492;6.860;2023-02-24T03:18:17;21.60;;;4.23;;
3718;SDS011;1875;52.492;6.860;2023-02-24T03:20:48;15.83;;;3.93;;
3718;SDS011;1875;52.492;6.860;2023-02-24T03:23:18;29.70;;;4.40;;
3718;SDS011;1875;52.492;6.860;2023-02-24T03:25:51;17.73;;;3.83;;
3718;SDS011;1875;52.492;6.860;2023-02-24T03:28:25;19.90;;;3.43;;
3718;SDS011;1875;52.492;6.860;2023-02-24T03:30:59;29.77;;;5.17;;
3718;SDS011;1875;52.492;6.860;2023-02-24T03:33:31;20.17;;;3.97;;
3718;SDS011;1875;52.492;6.860;2023-02-24T03:36:03;10.67;;;3.70;;
3718;SDS011;1875;52.492;6.860;2023-02-24T03:38:32;23.03;;;4.10;;
3718;SDS011;1875;52.492;6.860;2023-02-24T03:41:03;17.47;;;3.60;;
3718;SDS011;1875;52.492;6.860;2023-02-24T03:43:37;10.40;;;3.47;;
3718;SDS011;1875;52.492;6.860;2023-02-24T03:46:07;13.67;;;3.40;;
3718;SDS011;1875;52.492;6.860;2023-02-24T03:48:37;9.27;;;3.73;;
3718;SDS011;1875;52.492;6.860;2023-02-24T03:51:10;16.23;;;3.53;;
3718;SDS011;1875;52.492;6.860;2023-02-24T03:53:43;12.23;;;3.27;;
3718;SDS011;1875;52.492;6.860;2023-02-24T03:56:23;15.73;;;4.70;;
3718;SDS011;1875;52.492;6.860;2023-02-24T03:59:01;13.07;;;3.10;;
3718;SDS011;1875;52.492;6.860;2023-02-24T04:01:39;14.80;;;3.53;;
3718;SDS011;1875;52.492;6.860;2023-02-24T04:04:13;16.77;;;3.37;;
3718;SDS011;1875;52.492;6.860;2023-02-24T04:06:48;14.90;;;4.40;;
3718;SDS011;1875;52.492;6.860;2023-02-24T04:09:23;13.27;;;2.73;;
3718;SDS011;1875;52.492;6.860;2023-02-24T04:11:55;12.13;;;3.00;;
3718;SDS011;1875;52.492;6.860;2023-02-24T04:14:38;18.57;;;3.40;;
3718;SDS011;1875;52.492;6.860;2023-02-24T04:17:09;14.27;;;3.07;;
3718;SDS011;1875;52.492;6.860;2023-02-24T04:19:44;10.87;;;3.07;;
3718;SDS011;1875;52.492;6.860;2023-02-24T04:22:16;16.50;;;3.13;;
3718;SDS011;1875;52.492;6.860;2023-02-24T04:24:50;9.40;;;2.50;;
3718;SDS011;1875;52.492;6.860;2023-02-24T04:27:20;12.50;;;2.57;;
3718;SDS011;1875;52.492;6.860;2023-02-24T04:29:51;7.93;;;2.80;;
3718;SDS011;1875;52.492;6.860;2023-02-24T04:32:20;14.57;;;2.70;;
3718;SDS011;1875;52.492;6.860;2023-02-24T04:34:51;16.37;;;3.13;;
3718;SDS011;1875;52.492;6.860;2023-02-24T04:37:20;11.43;;;2.97;;
3718;SDS011;1875;52.492;6.860;2023-02-24T04:39:49;8.20;;;2.30;;
3718;SDS011;1875;52.492;6.860;2023-02-24T04:42:17;11.23;;;2.60;;
3718;SDS011;1875;52.492;6.860;2023-02-24T04:44:47;11.83;;;2.50;;
3718;SDS011;1875;52.492;6.860;2023-02-24T04:47:15;15.03;;;2.67;;
3718;SDS011;1875;52.492;6.860;2023-02-24T04:49:42;10.33;;;2.10;;
3718;SDS011;1875;52.492;6.860;2023-02-24T04:52:10;10.33;;;2.70;;
3718;SDS011;1875;52.492;6.860;2023-02-24T04:54:42;20.50;;;4.83;;
3718;SDS011;1875;52.492;6.860;2023-02-24T04:57:10;21.17;;;2.70;;
3718;SDS011;1875;52.492;6.860;2023-02-24T04:59:38;12.80;;;2.73;;
3718;SDS011;1875;52.492;6.860;2023-02-24T05:02:05;15.13;;;2.50;;
3718;SDS011;1875;52.492;6.860;2023-02-24T05:04:34;11.40;;;2.57;;
3718;SDS011;1875;52.492;6.860;2023-02-24T05:07:04;12.90;;;2.37;;
3718;SDS011;1875;52.492;6.860;2023-02-24T05:09:31;11.80;;;3.43;;
3718;SDS011;1875;52.492;6.860;2023-02-24T05:12:01;11.43;;;2.60;;
3718;SDS011;1875;52.492;6.860;2023-02-24T05:14:30;13.93;;;3.07;;
3718;SDS011;1875;52.492;6.860;2023-02-24T05:16:58;10.83;;;2.73;;
3718;SDS011;1875;52.492;6.860;2023-02-24T05:19:25;11.27;;;2.63;;
3718;SDS011;1875;52.492;6.860;2023-02-24T05:22:11;17.60;;;2.50;;
3718;SDS011;1875;52.492;6.860;2023-02-24T05:24:39;16.07;;;2.33;;
3718;SDS011;1875;52.492;6.860;2023-02-24T05:27:08;16.43;;;2.87;;
3718;SDS011;1875;52.492;6.860;2023-02-24T05:29:36;7.67;;;2.60;;
3718;SDS011;1875;52.492;6.860;2023-02-24T05:32:05;11.93;;;2.37;;
3718;SDS011;1875;52.492;6.860;2023-02-24T05:34:33;16.77;;;2.90;;
3718;SDS011;1875;52.492;6.860;2023-02-24T05:37:04;10.87;;;2.40;;
3718;SDS011;1875;52.492;6.860;2023-02-24T05:39:36;10.07;;;2.50;;
3718;SDS011;1875;52.492;6.860;2023-02-24T05:42:04;11.13;;;2.83;;
3718;SDS011;1875;52.492;6.860;2023-02-24T05:44:34;12.20;;;2.73;;
3718;SDS011;1875;52.492;6.860;2023-02-24T05:47:02;10.93;;;2.40;;
3718;SDS011;1875;52.492;6.860;2023-02-24T05:49:31;14.77;;;3.90;;
3718;SDS011;1875;52.492;6.860;2023-02-24T05:52:01;11.13;;;2.60;;
3718;SDS011;1875;52.492;6.860;2023-02-24T05:54:35;16.87;;;3.13;;
3718;SDS011;1875;52.492;6.860;2023-02-24T05:57:05;8.13;;;3.63;;
3718;SDS011;1875;52.492;6.860;2023-02-24T05:59:35;11.10;;;2.63;;
3718;SDS011;1875;52.492;6.860;2023-02-24T06:02:05;14.97;;;3.80;;
3718;SDS011;1875;52.492;6.860;2023-02-24T06:04:35;11.90;;;2.90;;
3718;SDS011;1875;52.492;6.860;2023-02-24T06:07:12;13.67;;;3.00;;
3718;SDS011;1875;52.492;6.860;2023-02-24T06:09:44;9.97;;;2.60;;
3718;SDS011;1875;52.492;6.860;2023-02-24T06:12:15;11.13;;;2.57;;
3718;SDS011;1875;52.492;6.860;2023-02-24T06:14:45;8.57;;;2.73;;
3718;SDS011;1875;52.492;6.860;2023-02-24T06:17:13;18.50;;;3.87;;
3718;SDS011;1875;52.492;6.860;2023-02-24T06:19:42;14.93;;;3.03;;
3718;SDS011;1875;52.492;6.860;2023-02-24T06:22:11;10.47;;;2.43;;
3718;SDS011;1875;52.492;6.860;2023-02-24T06:24:39;17.83;;;3.10;;
3718;SDS011;1875;52.492;6.860;2023-02-24T06:27:09;21.20;;;2.90;;
3718;SDS011;1875;52.492;6.860;2023-02-24T06:29:43;6.47;;;2.33;;
3718;SDS011;1875;52.492;6.860;2023-02-24T06:32:12;11.63;;;2.93;;
3718;SDS011;1875;52.492;6.860;2023-02-24T06:34:40;10.60;;;2.30;;
3718;SDS011;1875;52.492;6.860;2023-02-24T06:37:09;15.93;;;3.13;;
3718;SDS011;1875;52.492;6.860;2023-02-24T06:39:39;9.07;;;2.33;;
3718;SDS011;1875;52.492;6.860;2023-02-24T06:42:06;11.20;;;2.30;;
3718;SDS011;1875;52.492;6.860;2023-02-24T06:44:36;11.10;;;2.57;;
3718;SDS011;1875;52.492;6.860;2023-02-24T06:47:05;13.60;;;2.47;;
3718;SDS011;1875;52.492;6.860;2023-02-24T06:49:35;13.27;;;2.67;;
3718;SDS011;1875;52.492;6.860;2023-02-24T06:52:03;19.67;;;4.00;;
3718;SDS011;1875;52.492;6.860;2023-02-24T06:54:32;9.07;;;2.37;;
3718;SDS011;1875;52.492;6.860;2023-02-24T06:57:01;9.80;;;2.50;;
3718;SDS011;1875;52.492;6.860;2023-02-24T06:59:30;12.73;;;2.57;;
3718;SDS011;1875;52.492;6.860;2023-02-24T07:01:58;11.50;;;3.10;;
3718;SDS011;1875;52.492;6.860;2023-02-24T07:04:27;7.90;;;2.63;;
3718;SDS011;1875;52.492;6.860;2023-02-24T07:06:57;9.97;;;3.20;;
3718;SDS011;1875;52.492;6.860;2023-02-24T07:09:29;11.57;;;2.90;;
3718;SDS011;1875;52.492;6.860;2023-02-24T07:11:57;9.80;;;2.30;;
3718;SDS011;1875;52.492;6.860;2023-02-24T07:14:27;9.57;;;2.80;;
3718;SDS011;1875;52.492;6.860;2023-02-24T07:16:57;13.63;;;2.40;;
3718;SDS011;1875;52.492;6.860;2023-02-24T07:19:26;14.07;;;3.00;;
3718;SDS011;1875;52.492;6.860;2023-02-24T07:21:55;13.80;;;2.90;;
3718;SDS011;1875;52.492;6.860;2023-02-24T07:24:28;11.73;;;2.17;;
3718;SDS011;1875;52.492;6.860;2023-02-24T07:27:01;12.80;;;3.07;;
3718;SDS011;1875;52.492;6.860;2023-02-24T07:29:30;11.57;;;2.90;;
3718;SDS011;1875;52.492;6.860;2023-02-24T07:32:00;11.27;;;2.47;;
3718;SDS011;1875;52.492;6.860;2023-02-24T07:34:31;11.30;;;2.63;;
3718;SDS011;1875;52.492;6.860;2023-02-24T07:37:00;10.43;;;2.97;;
3718;SDS011;1875;52.492;6.860;2023-02-24T07:39:33;14.37;;;3.13;;
3718;SDS011;1875;52.492;6.860;2023-02-24T07:42:02;14.50;;;3.50;;
3718;SDS011;1875;52.492;6.860;2023-02-24T07:44:31;14.13;;;3.37;;
3718;SDS011;1875;52.492;6.860;2023-02-24T07:46:59;10.70;;;2.97;;
3718;SDS011;1875;52.492;6.860;2023-02-24T07:49:33;11.53;;;3.53;;
3718;SDS011;1875;52.492;6.860;2023-02-24T07:52:02;20.27;;;4.00;;
3718;SDS011;1875;52.492;6.860;2023-02-24T07:54:33;12.13;;;3.53;;
3718;SDS011;1875;52.492;6.860;2023-02-24T07:57:01;19.80;;;4.13;;
3718;SDS011;1875;52.492;6.860;2023-02-24T07:59:30;15.63;;;3.10;;
3718;SDS011;1875;52.492;6.860;2023-02-24T08:01:59;14.40;;;4.10;;
3718;SDS011;1875;52.492;6.860;2023-02-24T08:04:30;12.47;;;4.87;;
3718;SDS011;1875;52.492;6.860;2023-02-24T08:06:59;13.33;;;3.37;;
3718;SDS011;1875;52.492;6.860;2023-02-24T08:09:30;12.10;;;3.07;;
3718;SDS011;1875;52.492;6.860;2023-02-24T08:12:34;13.93;;;3.50;;
3718;SDS011;1875;52.492;6.860;2023-02-24T08:15:08;19.47;;;5.30;;
3718;SDS011;1875;52.492;6.860;2023-02-24T08:17:43;15.67;;;4.20;;
3718;SDS011;1875;52.492;6.860;2023-02-24T08:20:12;13.53;;;3.87;;
3718;SDS011;1875;52.492;6.860;2023-02-24T08:22:51;13.10;;;3.73;;
3718;SDS011;1875;52.492;6.860;2023-02-24T08:25:22;8.73;;;3.10;;
3718;SDS011;1875;52.492;6.860;2023-02-24T08:27:52;14.87;;;5.40;;
3718;SDS011;1875;52.492;6.860;2023-02-24T08:30:34;15.93;;;4.50;;
3718;SDS011;1875;52.492;6.860;2023-02-24T08:33:05;19.87;;;3.90;;
3718;SDS011;1875;52.492;6.860;2023-02-24T08:35:35;18.87;;;3.97;;
3718;SDS011;1875;52.492;6.860;2023-02-24T08:38:05;12.53;;;3.63;;
3718;SDS011;1875;52.492;6.860;2023-02-24T08:40:37;21.20;;;4.67;;
3718;SDS011;1875;52.492;6.860;2023-02-24T08:43:17;22.30;;;4.97;;
3718;SDS011;1875;52.492;6.860;2023-02-24T08:45:57;13.27;;;4.37;;
3718;SDS011;1875;52.492;6.860;2023-02-24T08:48:30;14.27;;;3.73;;
3718;SDS011;1875;52.492;6.860;2023-02-24T08:51:04;16.23;;;3.90;;
3718;SDS011;1875;52.492;6.860;2023-02-24T08:53:35;14.03;;;3.87;;
3718;SDS011;1875;52.492;6.860;2023-02-24T08:56:07;17.10;;;4.67;;
3718;SDS011;1875;52.492;6.860;2023-02-24T08:58:37;19.87;;;4.83;;
3718;SDS011;1875;52.492;6.860;2023-02-24T09:01:13;15.07;;;4.00;;
3718;SDS011;1875;52.492;6.860;2023-02-24T09:03:50;16.00;;;4.77;;
3718;SDS011;1875;52.492;6.860;2023-02-24T09:06:20;16.33;;;4.93;;
3718;SDS011;1875;52.492;6.860;2023-02-24T09:08:52;13.63;;;4.50;;
3718;SDS011;1875;52.492;6.860;2023-02-24T09:11:41;16.00;;;5.33;;
3718;SDS011;1875;52.492;6.860;2023-02-24T09:14:13;13.20;;;4.37;;
3718;SDS011;1875;52.492;6.860;2023-02-24T09:16:53;15.73;;;4.17;;
3718;SDS011;1875;52.492;6.860;2023-02-24T09:19:36;21.33;;;3.90;;
3718;SDS011;1875;52.492;6.860;2023-02-24T09:22:28;24.07;;;4.77;;
3718;SDS011;1875;52.492;6.860;2023-02-24T09:25:20;15.67;;;4.30;;
3718;SDS011;1875;52.492;6.860;2023-02-24T09:27:52;9.87;;;4.20;;
3718;SDS011;1875;52.492;6.860;2023-02-24T09:30:33;11.07;;;4.90;;
3718;SDS011;1875;52.492;6.860;2023-02-24T09:33:07;11.83;;;5.07;;
3718;SDS011;1875;52.492;6.860;2023-02-24T09:35:47;23.83;;;5.40;;
3718;SDS011;1875;52.492;6.860;2023-02-24T09:38:17;17.87;;;5.10;;
3718;SDS011;1875;52.492;6.860;2023-02-24T09:40:46;20.63;;;8.87;;
3718;SDS011;1875;52.492;6.860;2023-02-24T09:43:18;21.13;;;5.40;;
3718;SDS011;1875;52.492;6.860;2023-02-24T09:45:54;15.50;;;6.77;;
3718;SDS011;1875;52.492;6.860;2023-02-24T09:48:32;23.10;;;7.50;;
3718;SDS011;1875;52.492;6.860;2023-02-24T09:51:10;17.40;;;7.33;;
3718;SDS011;1875;52.492;6.860;2023-02-24T09:53:47;17.93;;;5.77;;
3718;SDS011;1875;52.492;6.860;2023-02-24T09:56:19;14.53;;;5.80;;
3718;SDS011;1875;52.492;6.860;2023-02-24T09:58:59;19.10;;;5.50;;
3718;SDS011;1875;52.492;6.860;2023-02-24T10:01:38;21.03;;;5.87;;
3718;SDS011;1875;52.492;6.860;2023-02-24T10:04:15;23.00;;;7.37;;
3718;SDS011;1875;52.492;6.860;2023-02-24T10:06:57;28.90;;;6.43;;
3718;SDS011;1875;52.492;6.860;2023-02-24T10:09:29;24.00;;;7.27;;
3718;SDS011;1875;52.492;6.860;2023-02-24T10:12:01;19.10;;;7.70;;
3718;SDS011;1875;52.492;6.860;2023-02-24T10:14:40;21.83;;;6.83;;
3718;SDS011;1875;52.492;6.860;2023-02-24T10:17:17;22.47;;;10.30;;
3718;SDS011;1875;52.492;6.860;2023-02-24T10:19:56;27.10;;;8.53;;
3718;SDS011;1875;52.492;6.860;2023-02-24T10:22:29;26.00;;;9.23;;
3718;SDS011;1875;52.492;6.860;2023-02-24T10:25:12;19.13;;;6.70;;
3718;SDS011;1875;52.492;6.860;2023-02-24T10:27:54;19.63;;;7.03;;
3718;SDS011;1875;52.492;6.860;2023-02-24T10:30:30;14.67;;;5.30;;
3718;SDS011;1875;52.492;6.860;2023-02-24T10:33:13;21.83;;;5.73;;
3718;SDS011;1875;52.492;6.860;2023-02-24T10:35:45;21.40;;;9.70;;
3718;SDS011;1875;52.492;6.860;2023-02-24T10:38:15;21.10;;;8.50;;
3718;SDS011;1875;52.492;6.860;2023-02-24T10:40:43;26.40;;;12.13;;
3718;SDS011;1875;52.492;6.860;2023-02-24T10:43:17;34.20;;;16.60;;
3718;SDS011;1875;52.492;6.860;2023-02-24T10:45:57;19.23;;;9.03;;
3718;SDS011;1875;52.492;6.860;2023-02-24T10:48:32;20.50;;;7.90;;
3718;SDS011;1875;52.492;6.860;2023-02-24T10:51:08;30.43;;;13.70;;
3718;SDS011;1875;52.492;6.860;2023-02-24T10:53:45;24.53;;;11.40;;
3718;SDS011;1875;52.492;6.860;2023-02-24T10:56:18;25.30;;;10.53;;
3718;SDS011;1875;52.492;6.860;2023-02-24T10:58:59;31.63;;;15.13;;
3718;SDS011;1875;52.492;6.860;2023-02-24T11:02:15;21.37;;;8.83;;
3718;SDS011;1875;52.492;6.860;2023-02-24T11:04:55;17.90;;;8.53;;
3718;SDS011;1875;52.492;6.860;2023-02-24T11:08:03;20.23;;;6.97;;
3718;SDS011;1875;52.492;6.860;2023-02-24T11:10:37;18.90;;;8.17;;
3718;SDS011;1875;52.492;6.860;2023-02-24T11:13:18;25.87;;;12.87;;
3718;SDS011;1875;52.492;6.860;2023-02-24T11:16:06;23.23;;;8.97;;
3718;SDS011;1875;52.492;6.860;2023-02-24T11:18:53;25.20;;;8.07;;
3718;SDS011;1875;52.492;6.860;2023-02-24T11:21:22;20.47;;;7.67;;
3718;SDS011;1875;52.492;6.860;2023-02-24T11:23:52;23.33;;;8.87;;
3718;SDS011;1875;52.492;6.860;2023-02-24T11:26:22;15.40;;;7.80;;
3718;SDS011;1875;52.492;6.860;2023-02-24T11:28:58;21.70;;;8.43;;
3718;SDS011;1875;52.492;6.860;2023-02-24T11:31:46;16.57;;;9.53;;
3718;SDS011;1875;52.492;6.860;2023-02-24T11:34:34;16.93;;;9.57;;
3718;SDS011;1875;52.492;6.860;2023-02-24T11:37:19;26.50;;;9.83;;
3718;SDS011;1875;52.492;6.860;2023-02-24T11:39:54;21.93;;;8.90;;
3718;SDS011;1875;52.492;6.860;2023-02-24T11:42:26;18.63;;;10.07;;
3718;SDS011;1875;52.492;6.860;2023-02-24T11:44:58;16.47;;;9.60;;
3718;SDS011;1875;52.492;6.860;2023-02-24T11:47:28;25.50;;;10.47;;
3718;SDS011;1875;52.492;6.860;2023-02-24T11:50:05;20.80;;;9.83;;
3718;SDS011;1875;52.492;6.860;2023-02-24T11:52:42;21.90;;;10.50;;
3718;SDS011;1875;52.492;6.860;2023-02-24T11:55:13;24.73;;;10.17;;
3718;SDS011;1875;52.492;6.860;2023-02-24T11:57:53;26.83;;;10.57;;
3718;SDS011;1875;52.492;6.860;2023-02-24T12:00:24;19.70;;;9.70;;
3718;SDS011;1875;52.492;6.860;2023-02-24T12:02:56;20.20;;;9.70;;
3718;SDS011;1875;52.492;6.860;2023-02-24T12:05:31;15.10;;;9.20;;
3718;SDS011;1875;52.492;6.860;2023-02-24T12:08:02;19.73;;;10.37;;
3718;SDS011;1875;52.492;6.860;2023-02-24T12:10:34;19.40;;;10.17;;
3718;SDS011;1875;52.492;6.860;2023-02-24T12:13:04;18.03;;;9.33;;
3718;SDS011;1875;52.492;6.860;2023-02-24T12:15:37;26.87;;;9.80;;
3718;SDS011;1875;52.492;6.860;2023-02-24T12:18:08;25.70;;;9.73;;
3718;SDS011;1875;52.492;6.860;2023-02-24T12:20:42;19.90;;;9.97;;
3718;SDS011;1875;52.492;6.860;2023-02-24T12:23:14;30.10;;;11.47;;
3718;SDS011;1875;52.492;6.860;2023-02-24T12:25:47;27.10;;;11.40;;
3718;SDS011;1875;52.492;6.860;2023-02-24T12:28:24;23.00;;;10.90;;
3718;SDS011;1875;52.492;6.860;2023-02-24T12:31:01;17.80;;;8.37;;
3718;SDS011;1875;52.492;6.860;2023-02-24T12:33:40;20.67;;;7.73;;
3718;SDS011;1875;52.492;6.860;2023-02-24T12:36:19;25.53;;;8.43;;
3718;SDS011;1875;52.492;6.860;2023-02-24T12:38:57;23.87;;;9.20;;
3718;SDS011;1875;52.492;6.860;2023-02-24T12:41:36;16.83;;;8.13;;
3718;SDS011;1875;52.492;6.860;2023-02-24T12:44:14;19.23;;;7.80;;
3718;SDS011;1875;52.492;6.860;2023-02-24T12:46:47;24.40;;;8.20;;
3718;SDS011;1875;52.492;6.860;2023-02-24T12:49:25;16.70;;;7.27;;
3718;SDS011;1875;52.492;6.860;2023-02-24T12:52:02;21.80;;;8.60;;
3718;SDS011;1875;52.492;6.860;2023-02-24T12:54:36;20.93;;;7.90;;
3718;SDS011;1875;52.492;6.860;2023-02-24T12:57:09;26.13;;;9.30;;
3718;SDS011;1875;52.492;6.860;2023-02-24T12:59:40;25.23;;;9.13;;
3718;SDS011;1875;52.492;6.860;2023-02-24T13:02:11;33.40;;;10.00;;
3718;SDS011;1875;52.492;6.860;2023-02-24T13:04:47;30.10;;;8.87;;
3718;SDS011;1875;52.492;6.860;2023-02-24T13:07:33;28.07;;;8.53;;
3718;SDS011;1875;52.492;6.860;2023-02-24T13:10:11;24.13;;;8.27;;
3718;SDS011;1875;52.492;6.860;2023-02-24T13:12:46;33.77;;;9.40;;
3718;SDS011;1875;52.492;6.860;2023-02-24T13:15:18;32.43;;;8.60;;
3718;SDS011;1875;52.492;6.860;2023-02-24T13:17:48;37.67;;;7.87;;
3718;SDS011;1875;52.492;6.860;2023-02-24T13:20:25;27.33;;;7.20;;
3718;SDS011;1875;52.492;6.860;2023-02-24T13:22:55;28.53;;;6.43;;
3718;SDS011;1875;52.492;6.860;2023-02-24T13:25:28;34.47;;;7.20;;
3718;SDS011;1875;52.492;6.860;2023-02-24T13:27:58;30.50;;;5.87;;
3718;SDS011;1875;52.492;6.860;2023-02-24T13:30:33;14.87;;;3.93;;
3718;SDS011;1875;52.492;6.860;2023-02-24T13:33:04;21.63;;;3.40;;
3718;SDS011;1875;52.492;6.860;2023-02-24T13:35:44;15.43;;;3.90;;
3718;SDS011;1875;52.492;6.860;2023-02-24T13:38:25;26.53;;;5.50;;
3718;SDS011;1875;52.492;6.860;2023-02-24T13:41:05;17.73;;;5.07;;
3718;SDS011;1875;52.492;6.860;2023-02-24T13:43:35;22.53;;;5.53;;
3718;SDS011;1875;52.492;6.860;2023-02-24T13:46:03;19.37;;;4.07;;
3718;SDS011;1875;52.492;6.860;2023-02-24T13:48:55;18.70;;;4.23;;
3718;SDS011;1875;52.492;6.860;2023-02-24T13:51:41;28.43;;;4.50;;
3718;SDS011;1875;52.492;6.860;2023-02-24T13:54:30;19.03;;;3.97;;
3718;SDS011;1875;52.492;6.860;2023-02-24T13:57:21;20.50;;;4.23;;
3718;SDS011;1875;52.492;6.860;2023-02-24T14:00:00;19.60;;;3.60;;
3718;SDS011;1875;52.492;6.860;2023-02-24T14:02:36;22.37;;;3.57;;
3718;SDS011;1875;52.492;6.860;2023-02-24T14:05:08;18.03;;;4.10;;
3718;SDS011;1875;52.492;6.860;2023-02-24T14:07:39;21.03;;;4.00;;
3718;SDS011;1875;52.492;6.860;2023-02-24T14:10:14;22.00;;;5.03;;
3718;SDS011;1875;52.492;6.860;2023-02-24T14:12:44;24.17;;;4.40;;
3718;SDS011;1875;52.492;6.860;2023-02-24T14:15:14;28.63;;;3.57;;
3718;SDS011;1875;52.492;6.860;2023-02-24T14:17:53;20.53;;;3.97;;
3718;SDS011;1875;52.492;6.860;2023-02-24T14:20:22;16.97;;;3.70;;
3718;SDS011;1875;52.492;6.860;2023-02-24T14:22:51;30.40;;;4.60;;
3718;SDS011;1875;52.492;6.860;2023-02-24T14:25:21;26.17;;;5.57;;
3718;SDS011;1875;52.492;6.860;2023-02-24T14:27:50;25.03;;;4.20;;
3718;SDS011;1875;52.492;6.860;2023-02-24T14:30:23;28.33;;;4.63;;
3718;SDS011;1875;52.492;6.860;2023-02-24T14:32:53;19.57;;;3.57;;
3718;SDS011;1875;52.492;6.860;2023-02-24T14:35:31;28.43;;;4.43;;
3718;SDS011;1875;52.492;6.860;2023-02-24T14:38:00;21.97;;;4.13;;
3718;SDS011;1875;52.492;6.860;2023-02-24T14:40:29;30.60;;;4.10;;
3718;SDS011;1875;52.492;6.860;2023-02-24T14:42:58;21.63;;;3.80;;
3718;SDS011;1875;52.492;6.860;2023-02-24T14:45:26;18.30;;;4.00;;
3718;SDS011;1875;52.492;6.860;2023-02-24T14:47:55;29.93;;;3.73;;
3718;SDS011;1875;52.492;6.860;2023-02-24T14:50:24;11.60;;;3.27;;
3718;SDS011;1875;52.492;6.860;2023-02-24T14:52:55;19.13;;;3.23;;
3718;SDS011;1875;52.492;6.860;2023-02-24T14:55:24;16.47;;;2.77;;
3718;SDS011;1875;52.492;6.860;2023-02-24T14:57:57;6.67;;;1.87;;
3718;SDS011;1875;52.492;6.860;2023-02-24T15:00:28;6.73;;;1.60;;
3718;SDS011;1875;52.492;6.860;2023-02-24T15:03:01;11.53;;;2.33;;
3718;SDS011;1875;52.492;6.860;2023-02-24T15:05:31;7.33;;;1.67;;
3718;SDS011;1875;52.492;6.860;2023-02-24T15:07:59;4.80;;;1.50;;
3718;SDS011;1875;52.492;6.860;2023-02-24T15:10:29;8.07;;;1.70;;
3718;SDS011;1875;52.492;6.860;2023-02-24T15:12:59;5.53;;;1.40;;
3718;SDS011;1875;52.492;6.860;2023-02-24T15:15:34;7.87;;;2.47;;
3718;SDS011;1875;52.492;6.860;2023-02-24T15:18:08;4.37;;;1.27;;
3718;SDS011;1875;52.492;6.860;2023-02-24T15:20:37;2.37;;;1.00;;
3718;SDS011;1875;52.492;6.860;2023-02-24T15:23:18;6.73;;;1.10;;
3718;SDS011;1875;52.492;6.860;2023-02-24T15:25:51;3.97;;;1.23;;
3718;SDS011;1875;52.492;6.860;2023-02-24T15:28:24;7.50;;;1.80;;
3718;SDS011;1875;52.492;6.860;2023-02-24T15:30:55;7.07;;;1.30;;
3718;SDS011;1875;52.492;6.860;2023-02-24T15:33:27;4.30;;;1.27;;
3718;SDS011;1875;52.492;6.860;2023-02-24T15:35:58;5.73;;;1.20;;
3718;SDS011;1875;52.492;6.860;2023-02-24T15:38:28;17.93;;;3.27;;
3718;SDS011;1875;52.492;6.860;2023-02-24T15:40:58;15.90;;;1.60;;